createdAt,value
2022-12-09T00:01:16.697Z,0.87
2022-12-09T00:03:44.878Z,0.87
2022-12-09T00:06:16.455Z,0.87
2022-12-09T00:08:44.989Z,0.87
2022-12-09T00:11:13.103Z,0.87
2022-12-09T00:13:41.656Z,0.85
2022-12-09T00:16:12.170Z,0.84
2022-12-09T00:18:44.316Z,0.82
2022-12-09T00:21:19.853Z,0.79
2022-12-09T00:23:48.186Z,0.77
2022-12-09T00:26:16.721Z,0.76
2022-12-09T00:28:45.014Z,0.76
2022-12-09T00:31:18.051Z,0.76
2022-12-09T00:33:46.450Z,0.81
2022-12-09T00:36:16.607Z,0.86
2022-12-09T00:38:44.252Z,0.91
2022-12-09T00:41:13.191Z,0.97
2022-12-09T00:43:41.761Z,1.02
2022-12-09T00:46:10.827Z,1.07
2022-12-09T00:48:38.856Z,1.10
2022-12-09T00:51:08.277Z,1.13
2022-12-09T00:53:35.965Z,1.15
2022-12-09T00:56:04.377Z,1.17
2022-12-09T00:58:32.112Z,1.18
2022-12-09T01:01:00.277Z,1.19
2022-12-09T01:03:29.881Z,1.20
2022-12-09T01:05:58.000Z,1.21
2022-12-09T01:08:25.954Z,1.22
2022-12-09T01:10:53.793Z,1.24
2022-12-09T01:13:21.649Z,1.25
2022-12-09T01:15:49.534Z,1.26
2022-12-09T01:18:17.402Z,1.28
2022-12-09T01:20:45.081Z,1.29
2022-12-09T01:23:13.176Z,1.30
2022-12-09T01:25:41.153Z,1.31
2022-12-09T01:28:09.046Z,1.30
2022-12-09T01:30:37.091Z,1.29
2022-12-09T01:33:06.465Z,1.31
2022-12-09T01:35:34.349Z,1.32
2022-12-09T01:38:02.106Z,1.32
2022-12-09T01:40:29.902Z,1.32
2022-12-09T01:42:57.624Z,1.31
2022-12-09T01:45:32.827Z,1.28
2022-12-09T01:48:11.140Z,1.26
2022-12-09T01:50:55.709Z,1.22
2022-12-09T01:53:26.643Z,1.19
2022-12-09T01:55:55.755Z,1.16
2022-12-09T01:58:24.098Z,1.13
2022-12-09T02:00:52.727Z,1.11
2022-12-09T02:03:21.585Z,1.09
2022-12-09T02:05:49.860Z,1.06
2022-12-09T02:08:19.693Z,1.04
2022-12-09T02:11:08.502Z,1.02
2022-12-09T02:13:47.823Z,1.01
2022-12-09T02:16:20.149Z,0.98
2022-12-09T02:19:17.055Z,0.98
2022-12-09T02:21:53.860Z,0.96
2022-12-09T02:24:41.454Z,0.95
2022-12-09T02:27:25.198Z,0.93
2022-12-09T02:30:09.172Z,0.92
2022-12-09T02:33:06.442Z,0.92
2022-12-09T02:35:48.106Z,0.92
2022-12-09T02:38:30.841Z,0.84
2022-12-09T02:41:10.455Z,0.95
2022-12-09T02:43:49.688Z,0.98
2022-12-09T02:46:21.085Z,1.00
2022-12-09T02:48:53.579Z,1.02
2022-12-09T02:51:22.826Z,1.05
2022-12-09T02:53:55.534Z,1.06
2022-12-09T02:56:24.308Z,1.07
2022-12-09T02:58:52.331Z,1.07
2022-12-09T03:01:35.681Z,1.05
2022-12-09T03:04:03.997Z,1.06
2022-12-09T03:06:37.835Z,1.07
2022-12-09T03:09:35.545Z,1.07
2022-12-09T03:12:10.076Z,1.06
2022-12-09T03:14:47.392Z,1.05
2022-12-09T03:17:25.837Z,1.05
2022-12-09T03:19:57.809Z,1.06
2022-12-09T03:22:29.264Z,1.07
2022-12-09T03:25:05.061Z,1.10
2022-12-09T03:27:35.967Z,1.13
2022-12-09T03:30:07.588Z,1.14
2022-12-09T03:32:37.738Z,1.17
2022-12-09T03:35:10.976Z,1.19
2022-12-09T03:37:40.155Z,1.20
2022-12-09T03:40:14.359Z,1.23
2022-12-09T03:43:05.984Z,1.25
2022-12-09T03:45:33.958Z,1.26
2022-12-09T03:48:02.366Z,1.28
2022-12-09T03:50:36.398Z,1.30
2022-12-09T03:53:13.757Z,1.33
2022-12-09T03:55:46.910Z,1.34
2022-12-09T03:58:15.153Z,1.36
2022-12-09T04:00:43.815Z,1.39
2022-12-09T04:03:13.836Z,1.41
2022-12-09T04:05:43.253Z,1.42
2022-12-09T04:08:11.433Z,1.42
2022-12-09T04:10:40.428Z,1.43
2022-12-09T04:13:08.553Z,1.42
2022-12-09T04:15:36.200Z,1.39
2022-12-09T04:18:04.208Z,1.37
2022-12-09T04:20:32.084Z,1.34
2022-12-09T04:23:00.258Z,1.33
2022-12-09T04:25:28.078Z,1.31
2022-12-09T04:30:32.094Z,1.29
2022-12-09T04:33:00.862Z,1.16
2022-12-09T04:35:28.826Z,1.16
2022-12-09T04:37:56.627Z,1.15
2022-12-09T04:40:24.992Z,1.16
2022-12-09T04:42:52.888Z,1.17
2022-12-09T04:45:20.880Z,1.18
2022-12-09T04:47:48.598Z,1.19
2022-12-09T04:50:17.284Z,1.20
2022-12-09T04:52:45.534Z,1.22
2022-12-09T04:55:14.331Z,1.22
2022-12-09T04:57:43.032Z,1.23
2022-12-09T05:00:13.956Z,1.21
2022-12-09T05:02:42.221Z,1.26
2022-12-09T05:05:10.464Z,1.27
2022-12-09T05:07:38.914Z,1.28
2022-12-09T05:10:08.144Z,1.30
2022-12-09T05:12:36.106Z,1.30
2022-12-09T05:15:04.537Z,1.31
2022-12-09T05:17:32.512Z,1.33
2022-12-09T05:20:00.417Z,1.32
2022-12-09T05:22:28.270Z,1.34
2022-12-09T05:24:56.111Z,1.36
2022-12-09T05:27:24.497Z,1.37
2022-12-09T05:29:52.548Z,1.35
2022-12-09T05:32:21.563Z,1.34
2022-12-09T05:34:49.656Z,1.36
2022-12-09T05:37:17.726Z,1.38
2022-12-09T05:39:45.908Z,1.40
2022-12-09T05:42:13.849Z,1.38
2022-12-09T05:44:41.703Z,1.37
2022-12-09T05:47:09.930Z,1.34
2022-12-09T05:49:39.075Z,1.34
2022-12-09T05:52:06.949Z,1.34
2022-12-09T05:54:34.669Z,1.35
2022-12-09T05:57:04.435Z,1.33
2022-12-09T05:59:32.783Z,1.35
2022-12-09T06:02:04.969Z,1.35
2022-12-09T06:04:36.761Z,1.34
2022-12-09T06:07:04.720Z,1.33
2022-12-09T06:09:33.901Z,1.34
2022-12-09T06:12:03.607Z,1.34
2022-12-09T06:14:31.465Z,1.35
2022-12-09T06:16:59.514Z,1.35
2022-12-09T06:19:27.643Z,1.35
2022-12-09T06:21:55.530Z,1.34
2022-12-09T06:24:23.459Z,1.35
2022-12-09T06:26:55.137Z,1.36
2022-12-09T06:29:22.970Z,1.36
2022-12-09T06:31:51.460Z,1.36
2022-12-09T06:34:20.294Z,1.37
2022-12-09T06:36:48.755Z,1.38
2022-12-09T06:39:17.184Z,1.38
2022-12-09T06:41:45.638Z,1.40
2022-12-09T06:44:19.983Z,1.41
2022-12-09T06:46:49.714Z,1.41
2022-12-09T06:49:18.243Z,1.42
2022-12-09T06:51:46.280Z,1.43
2022-12-09T06:54:14.243Z,1.44
2022-12-09T06:56:42.076Z,1.44
2022-12-09T06:59:10.805Z,1.44
2022-12-09T07:01:40.913Z,1.45
2022-12-09T07:04:10.778Z,1.46
2022-12-09T07:06:43.724Z,1.46
2022-12-09T07:09:17.875Z,1.46
2022-12-09T07:11:47.162Z,1.46
2022-12-09T07:14:16.771Z,1.47
2022-12-09T07:16:45.334Z,1.49
2022-12-09T07:19:21.526Z,1.52
2022-12-09T07:21:50.901Z,1.54
2022-12-09T07:24:20.189Z,1.56
2022-12-09T07:26:48.666Z,1.57
2022-12-09T07:29:17.153Z,1.60
2022-12-09T07:31:45.284Z,1.61
2022-12-09T07:34:13.627Z,1.62
2022-12-09T07:36:41.991Z,1.62
2022-12-09T07:39:16.367Z,1.63
2022-12-09T07:41:44.673Z,1.64
2022-12-09T07:44:12.786Z,1.67
2022-12-09T07:46:41.123Z,1.69
2022-12-09T07:49:11.271Z,1.72
2022-12-09T07:51:40.152Z,1.75
2022-12-09T07:54:12.360Z,1.77
2022-12-09T07:56:40.806Z,1.79
2022-12-09T07:59:09.817Z,1.81
2022-12-09T08:01:38.587Z,1.85
2022-12-09T08:04:07.611Z,1.88
2022-12-09T08:06:38.051Z,1.89
2022-12-09T08:09:09.159Z,1.93
2022-12-09T08:11:37.606Z,1.96
2022-12-09T08:14:12.167Z,2.00
2022-12-09T08:16:42.015Z,2.03
2022-12-09T08:19:10.609Z,2.04
2022-12-09T08:21:39.181Z,2.02
2022-12-09T08:24:08.156Z,2.01
2022-12-09T08:26:40.272Z,2.04
2022-12-09T08:29:10.956Z,2.07
2022-12-09T08:31:42.406Z,2.12
2022-12-09T08:34:11.150Z,2.16
2022-12-09T08:36:39.368Z,2.17
2022-12-09T08:39:07.856Z,2.19
2022-12-09T08:41:38.678Z,2.22
2022-12-09T08:44:13.763Z,2.25
2022-12-09T08:46:44.397Z,2.28
2022-12-09T08:49:13.586Z,2.31
2022-12-09T08:51:41.952Z,2.33
2022-12-09T08:54:09.924Z,2.36
2022-12-09T08:56:38.020Z,2.41
2022-12-09T08:59:06.081Z,2.45
2022-12-09T09:01:35.841Z,2.51
2022-12-09T09:04:08.721Z,2.56
2022-12-09T09:06:38.612Z,2.60
2022-12-09T09:09:09.002Z,2.64
2022-12-09T09:11:37.498Z,2.67
2022-12-09T09:14:06.814Z,2.70
2022-12-09T09:16:35.783Z,2.72
2022-12-09T09:19:06.702Z,2.72
2022-12-09T09:21:35.880Z,2.73
2022-12-09T09:24:12.107Z,2.75
2022-12-09T09:26:41.789Z,2.76
2022-12-09T09:29:15.110Z,2.77
2022-12-09T09:31:43.126Z,2.79
2022-12-09T09:34:11.462Z,2.80
2022-12-09T09:36:40.406Z,2.82
2022-12-09T09:39:08.605Z,2.82
2022-12-09T09:41:45.496Z,2.78
2022-12-09T09:44:33.078Z,2.74
2022-12-09T09:47:05.434Z,2.70
2022-12-09T09:49:55.589Z,2.69
2022-12-09T09:52:26.787Z,2.72
2022-12-09T09:54:57.119Z,2.77
2022-12-09T09:57:31.351Z,2.80
2022-12-09T10:00:22.848Z,2.80
2022-12-09T10:02:59.723Z,2.76
2022-12-09T10:05:33.612Z,2.72
2022-12-09T10:08:32.168Z,2.70
2022-12-09T10:11:10.996Z,2.70
2022-12-09T10:14:17.346Z,2.69
2022-12-09T10:16:57.456Z,2.68
2022-12-09T10:19:51.844Z,2.65
2022-12-09T10:22:25.713Z,2.61
2022-12-09T10:24:57.182Z,2.63
2022-12-09T10:27:29.851Z,2.67
2022-12-09T10:30:00.038Z,2.73
2022-12-09T10:32:34.537Z,2.80
2022-12-09T10:35:14.183Z,2.89
2022-12-09T10:37:42.449Z,2.96
2022-12-09T10:40:11.127Z,3.00
2022-12-09T10:43:07.272Z,3.05
2022-12-09T10:46:15.214Z,3.06
2022-12-09T10:48:33.089Z,3.06
2022-12-09T10:51:05.273Z,3.00
2022-12-09T10:53:34.659Z,3.02
2022-12-09T10:56:03.538Z,3.06
2022-12-09T10:58:32.512Z,3.10
2022-12-09T11:01:10.327Z,3.14
2022-12-09T11:03:56.101Z,3.16
2022-12-09T11:06:29.848Z,3.17
2022-12-09T11:09:01.141Z,3.18
2022-12-09T11:11:58.634Z,3.15
2022-12-09T11:14:56.968Z,3.09
2022-12-09T11:17:28.450Z,3.03
2022-12-09T11:20:22.648Z,3.01
2022-12-09T11:23:03.562Z,3.02
2022-12-09T11:25:34.670Z,3.05
2022-12-09T11:28:13.775Z,3.09
2022-12-09T11:33:58.114Z,3.13
2022-12-09T11:36:33.444Z,3.15
2022-12-09T11:39:28.869Z,3.18
2022-12-09T11:42:17.455Z,3.21
2022-12-09T11:44:48.490Z,3.22
2022-12-09T11:47:50.480Z,3.26
2022-12-09T11:50:31.480Z,3.27
2022-12-09T11:53:17.984Z,3.28
2022-12-09T11:55:52.646Z,3.32
2022-12-09T11:58:25.662Z,3.33
2022-12-09T12:00:59.910Z,3.33
2022-12-09T12:03:38.191Z,3.32
2022-12-09T12:06:12.209Z,3.30
2022-12-09T12:08:46.978Z,3.31
2022-12-09T12:11:28.935Z,3.32
2022-12-09T12:14:04.578Z,3.33
2022-12-09T12:16:52.569Z,3.35
2022-12-09T12:19:38.050Z,3.36
2022-12-09T12:22:24.649Z,3.33
2022-12-09T12:25:17.201Z,3.35
2022-12-09T12:28:01.220Z,3.38
2022-12-09T12:30:46.212Z,3.39
2022-12-09T12:36:45.254Z,3.35
2022-12-09T12:39:40.444Z,3.31
2022-12-09T12:42:26.676Z,3.27
2022-12-09T12:45:32.875Z,3.26
2022-12-09T12:48:24.543Z,3.23
2022-12-09T12:51:03.112Z,3.21
2022-12-09T12:54:09.238Z,3.20
2022-12-09T12:57:09.943Z,3.14
2022-12-09T12:59:54.329Z,3.10
2022-12-09T13:02:31.169Z,3.06
2022-12-09T13:05:03.704Z,3.04
2022-12-09T13:07:41.669Z,2.99
2022-12-09T13:10:35.268Z,2.91
2022-12-09T13:13:04.940Z,2.85
2022-12-09T13:15:39.259Z,2.83
2022-12-09T13:18:14.475Z,2.80
2022-12-09T13:20:46.695Z,2.75
2022-12-09T13:23:23.447Z,2.70
2022-12-09T13:25:57.395Z,2.65
2022-12-09T13:28:34.053Z,2.59
2022-12-09T13:31:03.357Z,2.53
2022-12-09T13:33:38.923Z,2.48
2022-12-09T13:36:36.958Z,2.39
2022-12-09T13:39:05.229Z,2.28
2022-12-09T13:41:55.830Z,2.21
2022-12-09T13:44:28.914Z,2.14
2022-12-09T13:47:13.892Z,2.09
2022-12-09T13:49:41.794Z,2.04
2022-12-09T13:52:09.524Z,1.98
2022-12-09T13:54:47.223Z,1.94
2022-12-09T13:57:23.951Z,1.88
2022-12-09T13:59:59.299Z,1.84
2022-12-09T14:02:41.021Z,1.78
2022-12-09T14:05:15.199Z,1.74
2022-12-09T14:07:48.769Z,1.71
2022-12-09T14:10:40.655Z,1.67
2022-12-09T14:13:38.053Z,1.63
2022-12-09T14:16:27.813Z,1.59
2022-12-09T14:18:58.751Z,1.55
2022-12-09T14:21:35.422Z,1.52
2022-12-09T14:24:09.549Z,1.50
2022-12-09T14:26:52.674Z,1.49
2022-12-09T14:29:42.285Z,1.46
2022-12-09T14:32:48.313Z,1.41
2022-12-09T14:35:15.953Z,1.35
2022-12-09T14:38:02.376Z,1.36
2022-12-09T14:40:52.046Z,1.37
2022-12-09T14:43:49.968Z,1.37
2022-12-09T14:46:25.727Z,1.37
2022-12-09T14:49:00.557Z,1.38
2022-12-09T14:51:34.794Z,1.39
2022-12-09T14:54:26.801Z,1.40
2022-12-09T14:56:59.266Z,1.38
2022-12-09T14:59:29.509Z,1.38
2022-12-09T15:02:04.242Z,1.37
2022-12-09T15:04:34.770Z,1.37
2022-12-09T15:07:16.061Z,1.36
2022-12-09T15:09:48.240Z,1.35
2022-12-09T15:12:16.059Z,1.34
2022-12-09T15:14:47.075Z,1.33
2022-12-09T15:17:32.360Z,1.31
2022-12-09T15:20:12.126Z,1.28
2022-12-09T15:22:40.321Z,1.26
2022-12-09T15:25:17.157Z,1.26
2022-12-09T15:27:59.658Z,1.26
2022-12-09T15:30:30.633Z,1.25
2022-12-09T15:32:58.796Z,1.26
2022-12-09T15:35:29.715Z,1.27
2022-12-09T15:38:00.266Z,1.27
2022-12-09T15:40:30.212Z,1.26
2022-12-09T15:43:01.781Z,1.24
2022-12-09T15:45:32.482Z,1.23
2022-12-09T15:48:09.412Z,1.22
2022-12-09T15:50:51.753Z,1.21
2022-12-09T15:53:23.240Z,1.19
2022-12-09T15:55:54.036Z,1.16
2022-12-09T15:58:25.903Z,1.15
2022-12-09T16:00:53.936Z,1.14
2022-12-09T16:03:25.246Z,1.15
2022-12-09T16:05:55.352Z,1.15
2022-12-09T16:08:23.504Z,1.15
2022-12-09T16:10:51.981Z,1.17
2022-12-09T16:13:21.345Z,1.17
2022-12-09T16:15:54.704Z,1.18
2022-12-09T16:18:46.944Z,1.17
2022-12-09T16:21:14.784Z,1.15
2022-12-09T16:23:45.017Z,1.14
2022-12-09T16:26:30.457Z,1.08
2022-12-09T16:29:01.128Z,1.07
2022-12-09T16:31:29.382Z,1.04
2022-12-09T16:33:57.690Z,1.04
2022-12-09T16:36:30.967Z,1.04
2022-12-09T16:39:07.912Z,1.05
2022-12-09T16:41:51.145Z,1.05
2022-12-09T16:44:21.217Z,1.02
2022-12-09T16:46:48.967Z,1.00
2022-12-09T16:49:16.653Z,0.98
2022-12-09T16:51:44.545Z,0.97
2022-12-09T16:54:20.056Z,0.95
2022-12-09T16:56:48.535Z,0.90
2022-12-09T16:59:16.167Z,0.89
2022-12-09T17:01:44.006Z,0.90
2022-12-09T17:04:30.213Z,0.91
2022-12-09T17:06:57.898Z,0.90
2022-12-09T17:09:25.548Z,0.90
2022-12-09T17:11:53.351Z,0.90
2022-12-09T17:14:21.229Z,0.90
2022-12-09T17:16:49.324Z,0.87
2022-12-09T17:19:20.444Z,0.86
2022-12-09T17:21:48.124Z,0.86
2022-12-09T17:24:15.985Z,0.86
2022-12-09T17:26:43.696Z,0.85
2022-12-09T17:29:11.523Z,0.82
2022-12-09T17:31:39.197Z,0.81
2022-12-09T17:34:07.311Z,0.81
2022-12-09T17:36:34.960Z,0.83
2022-12-09T17:39:03.594Z,0.86
2022-12-09T17:41:31.260Z,0.88
2022-12-09T17:44:02.128Z,0.89
2022-12-09T17:46:29.948Z,0.88
2022-12-09T17:49:00.276Z,0.86
2022-12-09T17:51:33.923Z,0.84
2022-12-09T17:54:04.876Z,0.84
2022-12-09T17:56:33.314Z,0.80
2022-12-09T17:59:04.199Z,0.78
2022-12-09T18:01:34.045Z,0.77
2022-12-09T18:04:08.245Z,0.78
2022-12-09T18:06:38.566Z,0.79
2022-12-09T18:09:08.568Z,0.77
2022-12-09T18:11:36.639Z,0.73
2022-12-09T18:14:05.533Z,0.75
2022-12-09T18:16:34.573Z,0.73
2022-12-09T18:19:05.145Z,0.70
2022-12-09T18:21:34.013Z,0.69
2022-12-09T18:24:01.971Z,0.67
2022-12-09T18:26:32.917Z,0.69
2022-12-09T18:29:03.701Z,0.70
2022-12-09T18:31:31.678Z,0.70
2022-12-09T18:33:59.374Z,0.73
2022-12-09T18:36:28.604Z,0.75
2022-12-09T18:38:58.305Z,0.76
2022-12-09T18:41:29.484Z,0.76
2022-12-09T18:43:59.347Z,0.76
2022-12-09T18:46:36.523Z,0.75
2022-12-09T18:49:10.731Z,0.74
2022-12-09T18:51:39.779Z,0.74
2022-12-09T18:54:08.368Z,0.75
2022-12-09T18:56:37.044Z,0.77
2022-12-09T18:59:07.542Z,0.80
2022-12-09T19:01:39.703Z,0.81
2022-12-09T19:04:16.412Z,0.82
2022-12-09T19:06:46.341Z,0.83
2022-12-09T19:09:18.236Z,0.83
2022-12-09T19:11:46.983Z,0.83
2022-12-09T19:14:16.034Z,0.85
2022-12-09T19:16:44.266Z,0.84
2022-12-09T19:19:14.216Z,0.86
2022-12-09T19:21:42.722Z,0.88
2022-12-09T19:24:15.051Z,0.90
2022-12-09T19:26:42.968Z,0.89
2022-12-09T19:29:12.115Z,0.91
2022-12-09T19:31:44.855Z,0.92
2022-12-09T19:34:15.863Z,0.95
2022-12-09T19:36:44.390Z,0.94
2022-12-09T19:39:13.739Z,0.91
2022-12-09T19:41:43.219Z,0.90
2022-12-09T19:44:31.139Z,0.92
2022-12-09T19:47:04.185Z,0.92
2022-12-09T19:49:32.234Z,0.92
2022-12-09T19:52:00.223Z,0.93
2022-12-09T19:54:29.571Z,0.93
2022-12-09T19:56:57.242Z,0.92
2022-12-09T19:59:26.505Z,0.93
2022-12-09T20:01:54.409Z,0.97
2022-12-09T20:07:12.190Z,0.95
2022-12-09T20:09:39.886Z,0.93
2022-12-09T20:12:07.530Z,0.93
2022-12-09T20:14:35.307Z,0.95
2022-12-09T20:17:02.920Z,0.93
2022-12-09T20:19:31.434Z,0.89
2022-12-09T20:21:59.203Z,0.87
2022-12-09T20:24:27.587Z,0.84
2022-12-09T20:26:55.987Z,0.80
2022-12-09T20:29:23.621Z,0.80
2022-12-09T20:31:52.670Z,0.78
2022-12-09T20:34:20.329Z,0.75
2022-12-09T20:36:48.594Z,0.74
2022-12-09T20:39:18.721Z,0.74
2022-12-09T20:41:47.352Z,0.72
2022-12-09T20:44:16.705Z,0.73
2022-12-09T20:46:47.295Z,0.74
2022-12-09T20:49:15.183Z,0.74
2022-12-09T20:51:47.024Z,0.75
2022-12-09T20:54:14.817Z,0.73
2022-12-09T20:56:42.532Z,0.72
2022-12-09T20:59:12.064Z,0.71
2022-12-09T21:01:40.284Z,0.71
2022-12-09T21:04:08.585Z,0.71
2022-12-09T21:06:38.897Z,0.72
2022-12-09T21:09:14.755Z,0.72
2022-12-09T21:11:42.816Z,0.72
2022-12-09T21:14:11.496Z,0.74
2022-12-09T21:16:41.564Z,0.75
2022-12-09T21:19:13.405Z,0.73
2022-12-09T21:21:42.950Z,0.73
2022-12-09T21:24:12.061Z,0.75
2022-12-09T21:26:40.811Z,0.78
2022-12-09T21:29:10.662Z,0.80
2022-12-09T21:31:40.846Z,0.80
2022-12-09T21:34:09.719Z,0.79
2022-12-09T21:36:39.797Z,0.78
2022-12-09T21:39:07.495Z,0.76
2022-12-09T21:41:36.539Z,0.77
2022-12-09T21:44:05.163Z,0.77
2022-12-09T21:46:37.373Z,0.76
2022-12-09T21:49:06.689Z,0.74
2022-12-09T21:51:35.060Z,0.77
2022-12-09T21:54:03.600Z,0.80
2022-12-09T21:56:33.547Z,0.83
2022-12-09T21:59:02.434Z,0.85
2022-12-09T22:01:33.340Z,0.86
2022-12-09T22:04:03.947Z,0.86
2022-12-09T22:06:31.758Z,0.85
2022-12-09T22:09:00.983Z,0.83
2022-12-09T22:11:31.681Z,0.82
2022-12-09T22:14:01.106Z,0.82
2022-12-09T22:16:31.926Z,0.82
2022-12-09T22:19:00.942Z,0.82
2022-12-09T22:21:30.735Z,0.81
2022-12-09T22:24:03.235Z,0.80
2022-12-09T22:26:31.599Z,0.80
2022-12-09T22:29:00.819Z,0.80
2022-12-09T22:31:31.690Z,0.84
2022-12-09T22:34:05.239Z,0.84
2022-12-09T22:36:34.724Z,0.83
2022-12-09T22:39:04.174Z,0.82
2022-12-09T22:41:34.237Z,0.81
2022-12-09T22:44:02.451Z,0.83
2022-12-09T22:46:33.880Z,0.83
2022-12-09T22:49:04.721Z,0.83
2022-12-09T22:51:34.860Z,0.83
2022-12-09T22:54:06.237Z,0.83
2022-12-09T22:56:35.737Z,0.82
2022-12-09T22:59:03.811Z,0.82
2022-12-09T23:01:33.524Z,0.80
2022-12-09T23:04:01.689Z,0.81
2022-12-09T23:06:29.512Z,0.81
2022-12-09T23:08:57.515Z,0.83
2022-12-09T23:11:26.837Z,0.84
2022-12-09T23:13:55.479Z,0.83
2022-12-09T23:16:24.406Z,0.82
2022-12-09T23:18:54.237Z,0.83
2022-12-09T23:21:25.234Z,0.84
2022-12-09T23:23:55.053Z,0.85
2022-12-09T23:26:25.836Z,0.86
2022-12-09T23:28:56.101Z,0.85
2022-12-09T23:31:28.159Z,0.86
2022-12-09T23:33:56.299Z,0.87
2022-12-09T23:36:27.400Z,0.90
2022-12-09T23:38:55.076Z,0.90
2022-12-09T23:41:23.878Z,0.77
2022-12-09T23:43:52.505Z,0.85
2022-12-09T23:46:24.129Z,0.84
2022-12-09T23:48:52.745Z,0.86
2022-12-09T23:51:30.051Z,0.87
2022-12-09T23:54:00.521Z,0.88
2022-12-09T23:56:30.719Z,0.87
2022-12-09T23:59:01.219Z,0.85
